createdAt,value
2023-01-07T00:01:14.985Z,2.50
2023-01-07T00:04:02.515Z,3.45
2023-01-07T00:06:49.490Z,3.53
2023-01-07T00:09:35.463Z,3.45
2023-01-07T00:12:22.557Z,3.17
2023-01-07T00:15:12.167Z,3.63
2023-01-07T00:17:58.277Z,3.28
2023-01-07T00:20:44.169Z,2.97
2023-01-07T00:23:30.952Z,3.65
2023-01-07T00:26:19.911Z,2.85
2023-01-07T00:29:08.132Z,3.20
2023-01-07T00:31:57.149Z,3.35
2023-01-07T00:34:43.309Z,2.65
2023-01-07T00:37:47.894Z,2.88
2023-01-07T00:40:34.376Z,3.95
2023-01-07T00:43:20.823Z,2.85
2023-01-07T00:46:06.830Z,2.42
2023-01-07T00:48:53.046Z,3.92
2023-01-07T00:51:38.878Z,2.53
2023-01-07T00:54:25.092Z,2.75
2023-01-07T00:57:13.952Z,2.92
2023-01-07T01:00:00.736Z,3.03
2023-01-07T01:02:48.204Z,2.80
2023-01-07T01:05:34.604Z,2.63
2023-01-07T01:08:21.254Z,3.30
2023-01-07T01:11:08.731Z,3.15
2023-01-07T01:13:54.564Z,3.08
2023-01-07T01:16:40.930Z,3.40
2023-01-07T01:19:27.445Z,2.83
2023-01-07T01:22:13.588Z,3.70
2023-01-07T01:24:59.634Z,3.08
2023-01-07T01:27:45.936Z,2.92
2023-01-07T01:30:32.546Z,3.33
2023-01-07T01:33:19.975Z,3.63
2023-01-07T01:36:10.047Z,3.03
2023-01-07T01:38:57.466Z,3.10
2023-01-07T01:41:44.125Z,3.40
2023-01-07T01:44:39.587Z,3.30
2023-01-07T01:48:09.618Z,3.47
2023-01-07T01:50:56.412Z,3.60
2023-01-07T01:53:43.042Z,3.28
2023-01-07T01:56:42.146Z,4.28
2023-01-07T01:59:33.691Z,4.15
2023-01-07T02:02:31.214Z,3.38
2023-01-07T02:05:18.135Z,3.60
2023-01-07T02:08:04.356Z,3.60
2023-01-07T02:11:18.976Z,2.80
2023-01-07T02:14:23.053Z,2.92
2023-01-07T02:17:59.584Z,3.55
2023-01-07T02:21:14.732Z,3.15
2023-01-07T02:24:06.514Z,4.95
2023-01-07T02:26:58.240Z,4.05
2023-01-07T02:29:59.022Z,3.30
2023-01-07T02:33:00.202Z,3.08
2023-01-07T02:35:55.731Z,2.97
2023-01-07T02:38:55.926Z,3.05
2023-01-07T02:41:57.265Z,2.92
2023-01-07T02:44:53.621Z,2.97
2023-01-07T02:47:50.247Z,2.78
2023-01-07T02:50:36.151Z,2.88
2023-01-07T02:53:24.611Z,3.53
2023-01-07T02:56:22.872Z,3.63
2023-01-07T02:59:35.120Z,2.95
2023-01-07T03:02:33.551Z,3.08
2023-01-07T03:05:50.017Z,2.63
2023-01-07T03:08:58.790Z,3.13
2023-01-07T03:11:55.133Z,2.90
2023-01-07T03:14:51.333Z,2.80
2023-01-07T03:17:44.729Z,2.97
2023-01-07T03:20:33.835Z,2.30
2023-01-07T03:23:23.712Z,2.75
2023-01-07T03:26:12.458Z,2.78
2023-01-07T03:29:01.235Z,2.88
2023-01-07T03:31:59.513Z,3.05
2023-01-07T03:34:47.252Z,2.63
2023-01-07T03:37:35.365Z,2.95
2023-01-07T03:40:24.409Z,3.40
2023-01-07T03:43:17.744Z,3.75
2023-01-07T03:46:03.973Z,2.17
2023-01-07T03:48:50.396Z,3.05
2023-01-07T03:51:36.828Z,2.58
2023-01-07T03:54:23.962Z,2.92
2023-01-07T03:57:10.077Z,2.90
2023-01-07T03:59:57.039Z,3.10
2023-01-07T04:02:43.685Z,3.83
2023-01-07T04:05:38.952Z,3.88
2023-01-07T04:08:28.405Z,2.42
2023-01-07T04:11:15.385Z,2.72
2023-01-07T04:14:04.502Z,2.47
2023-01-07T04:16:51.426Z,2.80
2023-01-07T04:19:39.376Z,2.42
2023-01-07T04:22:26.344Z,2.72
2023-01-07T04:25:12.388Z,2.90
2023-01-07T04:28:01.540Z,3.15
2023-01-07T04:30:47.560Z,2.88
2023-01-07T04:33:34.430Z,3.00
2023-01-07T04:36:21.659Z,2.70
2023-01-07T04:39:08.269Z,2.60
2023-01-07T04:41:54.155Z,4.18
2023-01-07T04:44:40.039Z,2.75
2023-01-07T04:47:26.092Z,2.58
2023-01-07T04:50:12.697Z,3.40
2023-01-07T04:52:59.284Z,3.88
2023-01-07T04:55:46.569Z,2.90
2023-01-07T04:58:33.515Z,3.85
2023-01-07T05:01:20.222Z,2.85
2023-01-07T05:04:07.265Z,3.00
2023-01-07T05:06:53.461Z,3.05
2023-01-07T05:09:40.388Z,3.05
2023-01-07T05:12:27.483Z,3.33
2023-01-07T05:15:14.005Z,2.45
2023-01-07T05:18:01.790Z,2.67
2023-01-07T05:20:50.186Z,3.10
2023-01-07T05:23:36.581Z,3.22
2023-01-07T05:26:22.752Z,3.30
2023-01-07T05:29:10.289Z,2.85
2023-01-07T05:31:56.761Z,3.97
2023-01-07T05:34:42.800Z,3.05
2023-01-07T05:37:28.694Z,2.80
2023-01-07T05:40:17.269Z,3.33
2023-01-07T05:43:03.167Z,2.60
2023-01-07T05:45:49.690Z,2.60
2023-01-07T05:48:36.000Z,3.30
2023-01-07T05:51:21.951Z,2.95
2023-01-07T05:54:08.848Z,3.00
2023-01-07T05:56:55.097Z,3.20
2023-01-07T05:59:41.201Z,2.88
2023-01-07T06:02:27.326Z,2.55
2023-01-07T06:05:13.450Z,3.50
2023-01-07T06:07:59.926Z,4.90
2023-01-07T06:10:46.114Z,2.70
2023-01-07T06:13:32.799Z,3.15
2023-01-07T06:16:18.747Z,2.80
2023-01-07T06:19:04.809Z,2.72
2023-01-07T06:21:50.705Z,4.00
2023-01-07T06:24:37.294Z,3.45
2023-01-07T06:27:23.803Z,2.70
2023-01-07T06:30:11.258Z,2.67
2023-01-07T06:32:57.357Z,2.70
2023-01-07T06:35:45.278Z,3.13
2023-01-07T06:38:31.516Z,3.20
2023-01-07T06:41:17.449Z,3.17
2023-01-07T06:44:03.765Z,3.17
2023-01-07T06:46:50.032Z,2.83
2023-01-07T06:49:36.048Z,3.38
2023-01-07T06:52:22.047Z,4.30
2023-01-07T06:55:08.595Z,2.75
2023-01-07T06:57:54.850Z,3.08
2023-01-07T07:00:40.714Z,2.50
2023-01-07T07:03:26.656Z,2.60
2023-01-07T07:06:12.909Z,2.95
2023-01-07T07:08:58.848Z,2.53
2023-01-07T07:11:44.911Z,2.97
2023-01-07T07:14:30.879Z,3.10
2023-01-07T07:17:16.652Z,2.90
2023-01-07T07:20:02.880Z,2.65
2023-01-07T07:22:49.034Z,2.75
2023-01-07T07:25:35.263Z,3.08
2023-01-07T07:28:22.178Z,3.28
2023-01-07T07:31:08.257Z,2.47
2023-01-07T07:33:54.358Z,2.45
2023-01-07T07:36:40.362Z,2.75
2023-01-07T07:39:26.397Z,2.78
2023-01-07T07:42:16.398Z,4.05
2023-01-07T07:45:05.061Z,4.38
2023-01-07T07:47:51.746Z,2.60
2023-01-07T07:50:40.768Z,3.30
2023-01-07T07:53:26.665Z,4.20
2023-01-07T07:56:12.704Z,3.22
2023-01-07T07:58:58.659Z,2.90
2023-01-07T08:01:45.274Z,2.50
2023-01-07T08:04:34.200Z,2.80
2023-01-07T08:07:32.913Z,3.55
2023-01-07T08:10:20.814Z,2.45
2023-01-07T08:13:06.861Z,3.03
2023-01-07T08:15:55.917Z,3.15
2023-01-07T08:18:43.063Z,2.95
2023-01-07T08:21:29.310Z,2.75
2023-01-07T08:24:15.479Z,3.72
2023-01-07T08:27:01.687Z,2.78
2023-01-07T08:29:48.047Z,3.50
2023-01-07T08:32:34.305Z,3.35
2023-01-07T08:35:20.496Z,3.22
2023-01-07T08:38:09.338Z,3.05
2023-01-07T08:40:55.549Z,3.58
2023-01-07T08:43:44.863Z,2.70
2023-01-07T08:46:31.114Z,2.95
2023-01-07T08:49:17.038Z,3.70
2023-01-07T08:52:03.067Z,2.80
2023-01-07T08:54:49.491Z,3.20
2023-01-07T08:57:36.303Z,2.85
2023-01-07T09:00:22.718Z,2.70
2023-01-07T09:03:09.431Z,4.07
2023-01-07T09:05:55.729Z,3.05
2023-01-07T09:08:42.069Z,3.40
2023-01-07T09:11:28.350Z,3.35
2023-01-07T09:14:15.074Z,4.00
2023-01-07T09:17:01.165Z,3.03
2023-01-07T09:19:47.296Z,3.45
2023-01-07T09:22:34.853Z,3.00
2023-01-07T09:25:20.768Z,3.17
2023-01-07T09:28:06.785Z,3.50
2023-01-07T09:30:52.691Z,3.17
2023-01-07T09:33:40.859Z,3.58
2023-01-07T09:36:27.209Z,3.38
2023-01-07T09:39:13.841Z,3.28
2023-01-07T09:42:37.439Z,3.13
2023-01-07T09:45:25.601Z,3.33
2023-01-07T09:48:22.035Z,3.13
2023-01-07T09:51:18.290Z,3.42
2023-01-07T09:54:06.409Z,2.90
2023-01-07T09:56:52.774Z,2.85
2023-01-07T09:59:38.794Z,3.13
2023-01-07T10:02:37.335Z,3.45
2023-01-07T10:05:54.333Z,3.53
2023-01-07T10:08:52.510Z,3.40
2023-01-07T10:12:03.082Z,3.70
2023-01-07T10:15:34.565Z,4.40
2023-01-07T10:18:33.163Z,5.13
2023-01-07T10:21:37.919Z,4.35
2023-01-07T10:24:32.335Z,3.40
2023-01-07T10:27:31.217Z,4.15
2023-01-07T10:30:24.273Z,3.05
2023-01-07T10:33:26.851Z,3.00
2023-01-07T10:36:34.975Z,4.40
2023-01-07T10:39:44.175Z,3.22
2023-01-07T10:42:57.052Z,4.32
2023-01-07T10:46:01.569Z,4.13
2023-01-07T10:48:53.638Z,4.72
2023-01-07T10:51:54.163Z,4.55
2023-01-07T10:54:54.358Z,4.18
2023-01-07T10:57:41.352Z,5.05
2023-01-07T11:00:27.496Z,4.53
2023-01-07T11:03:21.460Z,4.35
2023-01-07T11:06:14.414Z,5.35
2023-01-07T11:09:04.609Z,4.63
2023-01-07T11:11:52.345Z,5.22
2023-01-07T11:14:41.561Z,4.65
2023-01-07T11:17:36.257Z,4.18
2023-01-07T11:20:55.236Z,4.88
2023-01-07T11:23:44.172Z,4.78
2023-01-07T11:26:32.354Z,5.25
2023-01-07T11:29:28.063Z,3.95
2023-01-07T11:32:26.206Z,4.57
2023-01-07T11:35:15.413Z,4.60
2023-01-07T11:38:01.488Z,4.97
2023-01-07T11:40:57.510Z,3.97
2023-01-07T11:43:49.105Z,3.80
2023-01-07T11:46:35.335Z,4.30
2023-01-07T11:49:31.155Z,3.53
2023-01-07T11:52:21.241Z,5.85
2023-01-07T11:55:19.001Z,4.22
2023-01-07T11:58:29.647Z,4.32
2023-01-07T12:01:19.181Z,4.88
2023-01-07T12:04:18.872Z,3.97
2023-01-07T12:07:07.953Z,6.07
2023-01-07T12:09:54.271Z,4.55
2023-01-07T12:12:45.364Z,4.72
2023-01-07T12:15:35.011Z,4.78
2023-01-07T12:18:51.589Z,5.13
2023-01-07T12:21:50.232Z,5.43
2023-01-07T12:24:48.110Z,4.25
2023-01-07T12:27:50.660Z,5.75
2023-01-07T12:30:55.043Z,4.60
2023-01-07T12:34:08.936Z,4.15
2023-01-07T12:37:01.797Z,3.80
2023-01-07T12:39:54.389Z,3.50
2023-01-07T12:42:52.647Z,3.78
2023-01-07T12:45:51.495Z,4.10
2023-01-07T12:49:05.084Z,3.40
2023-01-07T12:52:06.601Z,4.68
2023-01-07T12:55:03.545Z,3.60
2023-01-07T12:58:01.564Z,3.60
2023-01-07T13:00:59.736Z,3.78
2023-01-07T13:04:06.911Z,4.68
2023-01-07T13:07:06.266Z,6.20
2023-01-07T13:10:05.837Z,3.53
2023-01-07T13:12:56.600Z,4.88
2023-01-07T13:15:42.844Z,3.25
2023-01-07T13:18:32.107Z,4.93
2023-01-07T13:21:19.515Z,3.88
2023-01-07T13:24:54.586Z,4.00
2023-01-07T13:27:50.375Z,5.30
2023-01-07T13:31:06.719Z,3.78
2023-01-07T13:34:12.773Z,4.32
2023-01-07T13:37:20.606Z,4.15
2023-01-07T13:40:32.686Z,4.18
2023-01-07T13:43:21.661Z,4.22
2023-01-07T13:46:15.284Z,3.90
2023-01-07T13:49:01.974Z,3.72
2023-01-07T13:51:47.987Z,4.93
2023-01-07T13:54:49.343Z,4.30
2023-01-07T13:57:35.176Z,3.47
2023-01-07T14:00:42.944Z,3.80
2023-01-07T14:03:39.645Z,3.60
2023-01-07T14:06:42.537Z,4.28
2023-01-07T14:09:33.759Z,3.90
2023-01-07T14:12:40.826Z,3.08
2023-01-07T14:15:53.991Z,3.47
2023-01-07T14:18:40.203Z,3.10
2023-01-07T14:21:34.822Z,4.38
2023-01-07T14:24:45.743Z,3.35
2023-01-07T14:27:47.277Z,3.13
2023-01-07T14:30:43.028Z,3.80
2023-01-07T14:33:39.560Z,2.85
2023-01-07T14:37:09.763Z,4.00
2023-01-07T14:39:55.627Z,3.35
2023-01-07T14:42:43.743Z,3.95
2023-01-07T14:45:39.215Z,3.63
2023-01-07T14:48:34.165Z,2.92
2023-01-07T14:51:43.963Z,3.63
2023-01-07T14:54:33.063Z,3.40
2023-01-07T14:57:51.144Z,2.97
2023-01-07T15:00:56.882Z,2.53
2023-01-07T15:03:58.282Z,2.90
2023-01-07T15:06:45.420Z,3.47
2023-01-07T15:10:09.805Z,3.00
2023-01-07T15:13:16.615Z,3.37
2023-01-07T15:16:07.425Z,4.20
2023-01-07T15:18:54.650Z,2.60
2023-01-07T15:22:07.253Z,3.05
2023-01-07T15:25:27.799Z,2.75
2023-01-07T15:28:16.715Z,2.15
2023-01-07T15:31:27.801Z,1.65
2023-01-07T15:34:27.030Z,1.48
2023-01-07T15:37:15.588Z,1.20
2023-01-07T15:40:05.800Z,1.92
2023-01-07T15:42:56.983Z,1.80
2023-01-07T15:45:45.963Z,3.08
2023-01-07T15:48:33.221Z,3.22
2023-01-07T15:51:22.552Z,3.67
2023-01-07T15:54:27.808Z,3.08
2023-01-07T15:57:26.301Z,3.25
2023-01-07T16:00:14.138Z,4.57
2023-01-07T16:03:04.183Z,4.22
2023-01-07T16:05:53.136Z,3.83
2023-01-07T16:08:39.780Z,4.18
2023-01-07T16:11:28.981Z,4.63
2023-01-07T16:14:24.078Z,5.35
2023-01-07T16:17:12.597Z,4.68
2023-01-07T16:20:29.287Z,4.28
2023-01-07T16:23:36.825Z,4.22
2023-01-07T16:26:37.440Z,3.97
2023-01-07T16:29:35.932Z,4.88
2023-01-07T16:32:39.404Z,4.40
2023-01-07T16:35:36.961Z,4.35
2023-01-07T16:38:23.581Z,5.68
2023-01-07T16:41:26.888Z,4.32
2023-01-07T16:44:44.156Z,6.30
2023-01-07T16:47:34.170Z,4.25
2023-01-07T16:50:20.331Z,4.35
2023-01-07T16:53:28.403Z,5.72
2023-01-07T16:56:18.207Z,4.00
2023-01-07T16:59:07.489Z,3.28
2023-01-07T17:01:55.562Z,3.22
2023-01-07T17:04:41.857Z,3.35
2023-01-07T17:07:28.772Z,3.47
2023-01-07T17:10:27.746Z,3.40
2023-01-07T17:13:13.793Z,3.95
2023-01-07T17:16:24.712Z,3.90
2023-01-07T17:19:25.762Z,3.20
2023-01-07T17:22:47.765Z,4.07
2023-01-07T17:25:34.521Z,3.15
2023-01-07T17:28:25.205Z,5.70
2023-01-07T17:31:11.467Z,3.67
2023-01-07T17:33:57.376Z,4.32
2023-01-07T17:36:43.585Z,4.55
2023-01-07T17:39:30.181Z,3.63
2023-01-07T17:45:36.913Z,4.00
2023-01-07T17:48:23.153Z,3.13
2023-01-07T17:51:11.471Z,3.75
2023-01-07T17:53:59.063Z,4.45
2023-01-07T17:56:45.377Z,4.18
2023-01-07T17:59:31.652Z,4.15
2023-01-07T18:02:21.169Z,3.60
2023-01-07T18:05:22.411Z,3.03
2023-01-07T18:08:09.571Z,4.13
2023-01-07T18:11:15.375Z,2.80
2023-01-07T18:14:26.645Z,2.30
2023-01-07T18:17:15.267Z,2.20
2023-01-07T18:20:01.488Z,1.75
2023-01-07T18:22:47.853Z,2.00
2023-01-07T18:25:37.159Z,1.30
2023-01-07T18:28:23.181Z,1.13
2023-01-07T18:31:09.549Z,1.67
2023-01-07T18:33:55.948Z,0.88
2023-01-07T18:36:42.929Z,1.60
2023-01-07T18:39:31.576Z,0.95
2023-01-07T18:42:21.196Z,0.73
2023-01-07T18:45:08.292Z,0.80
2023-01-07T18:47:54.535Z,1.17
2023-01-07T18:50:41.797Z,0.88
2023-01-07T18:53:27.822Z,0.85
2023-01-07T18:56:13.679Z,0.90
2023-01-07T18:59:00.108Z,1.10
2023-01-07T19:01:46.819Z,1.10
2023-01-07T19:04:37.975Z,1.10
2023-01-07T19:07:24.061Z,1.10
2023-01-07T19:10:10.568Z,1.20
2023-01-07T19:12:56.462Z,1.20
2023-01-07T19:15:45.418Z,1.05
2023-01-07T19:18:31.644Z,1.33
2023-01-07T19:21:17.688Z,1.42
2023-01-07T19:24:04.592Z,2.00
2023-01-07T19:26:51.789Z,1.50
2023-01-07T19:29:38.291Z,1.42
2023-01-07T19:32:24.317Z,1.67
2023-01-07T19:35:10.345Z,2.00
2023-01-07T19:37:56.563Z,1.90
2023-01-07T19:40:46.397Z,1.70
2023-01-07T19:43:32.753Z,1.83
2023-01-07T19:46:20.177Z,1.88
2023-01-07T19:49:07.859Z,2.45
2023-01-07T19:51:53.772Z,2.47
2023-01-07T19:54:39.741Z,2.00
2023-01-07T19:57:29.492Z,2.55
2023-01-07T20:00:16.194Z,3.10
2023-01-07T20:03:02.328Z,3.25
2023-01-07T20:05:48.757Z,2.38
2023-01-07T20:08:36.013Z,2.85
2023-01-07T20:11:23.299Z,3.05
2023-01-07T20:14:10.612Z,3.22
2023-01-07T20:16:56.674Z,2.95
2023-01-07T20:19:44.801Z,3.63
2023-01-07T20:22:31.334Z,2.55
2023-01-07T20:25:18.798Z,2.20
2023-01-07T20:28:05.355Z,2.83
2023-01-07T20:30:51.532Z,4.20
2023-01-07T20:33:37.561Z,3.03
2023-01-07T20:36:26.900Z,3.17
2023-01-07T20:39:13.139Z,3.50
2023-01-07T20:41:59.409Z,2.83
2023-01-07T20:44:46.620Z,3.05
2023-01-07T20:47:32.943Z,3.90
2023-01-07T20:50:18.861Z,3.20
2023-01-07T20:53:04.960Z,3.20
2023-01-07T20:56:01.458Z,4.00
2023-01-07T20:58:48.584Z,3.42
2023-01-07T21:01:35.158Z,3.05
2023-01-07T21:04:21.014Z,3.22
2023-01-07T21:07:07.057Z,3.47
2023-01-07T21:09:52.869Z,3.13
2023-01-07T21:12:38.797Z,3.33
2023-01-07T21:15:24.831Z,6.25
2023-01-07T21:18:10.660Z,3.40
2023-01-07T21:20:56.714Z,4.13
2023-01-07T21:23:46.602Z,4.13
2023-01-07T21:26:33.319Z,5.93
2023-01-07T21:29:19.929Z,4.45
2023-01-07T21:32:06.197Z,3.13
2023-01-07T21:34:52.318Z,4.38
2023-01-07T21:37:39.490Z,4.72
2023-01-07T21:40:25.758Z,4.85
2023-01-07T21:43:11.984Z,4.43
2023-01-07T21:46:02.532Z,5.20
2023-01-07T21:48:49.761Z,4.15
2023-01-07T21:51:35.771Z,3.90
2023-01-07T21:54:21.763Z,4.90
2023-01-07T21:57:08.218Z,4.97
2023-01-07T21:59:55.135Z,6.10
2023-01-07T22:02:43.768Z,4.10
2023-01-07T22:05:30.060Z,5.18
2023-01-07T22:08:16.538Z,5.18
2023-01-07T22:11:02.651Z,4.28
2023-01-07T22:13:56.321Z,5.13
2023-01-07T22:16:43.092Z,3.65
2023-01-07T22:19:29.813Z,4.88
2023-01-07T22:22:16.766Z,4.47
2023-01-07T22:25:03.168Z,6.93
2023-01-07T22:27:49.272Z,3.83
2023-01-07T22:30:38.272Z,4.55
2023-01-07T22:33:24.477Z,5.13
2023-01-07T22:36:13.355Z,3.80
2023-01-07T22:39:05.021Z,4.95
2023-01-07T22:41:56.110Z,4.25
2023-01-07T22:44:47.287Z,4.93
2023-01-07T22:47:40.513Z,4.72
2023-01-07T22:50:29.489Z,6.13
2023-01-07T22:53:15.909Z,4.63
2023-01-07T22:56:03.089Z,4.60
2023-01-07T22:58:49.224Z,4.90
2023-01-07T23:01:37.736Z,4.90
2023-01-07T23:04:23.816Z,5.97
2023-01-07T23:07:10.017Z,5.00
2023-01-07T23:09:56.042Z,4.22
2023-01-07T23:12:41.903Z,4.13
2023-01-07T23:15:27.947Z,5.13
2023-01-07T23:18:13.875Z,4.00
2023-01-07T23:21:03.588Z,4.45
2023-01-07T23:23:50.344Z,4.60
2023-01-07T23:26:36.626Z,4.68
2023-01-07T23:29:23.297Z,5.32
2023-01-07T23:32:12.415Z,5.45
2023-01-07T23:34:58.691Z,4.35
2023-01-07T23:37:44.643Z,4.47
2023-01-07T23:40:30.681Z,5.57
2023-01-07T23:43:16.791Z,5.53
2023-01-07T23:46:08.951Z,5.30
2023-01-07T23:48:55.238Z,3.95
2023-01-07T23:51:41.677Z,4.43
2023-01-07T23:54:28.093Z,3.88
2023-01-07T23:57:13.880Z,4.60
2023-01-07T23:59:59.994Z,4.72
